Time;durP1;ratioP1;P1;durP2;ratioP2;P2;SDS_P1;SDS_P2;PMS_P1;PMS_P2;Temp;Humidity;BMP_temperature;BMP_pressure;BME280_temperature;BME280_humidity;BME280_pressure;Samples;Min_cycle;Max_cycle;Signal;HPM_P1;HPM_P2
2023/08/07 00:00:26;;;;;;;20.33;3.07;;;;;;;11.56;100.00;101263.53;4974118;28;20023;-94
2023/08/07 00:02:52;;;;;;;19.65;2.42;;;;;;;11.43;100.00;101237.09;4974400;28;20479;-93
2023/08/07 00:05:17;;;;;;;19.13;3.27;;;;;;;11.43;100.00;101229.84;4972415;28;20027;-92
2023/08/07 00:07:43;;;;;;;17.20;3.30;;;;;;;11.48;100.00;101231.78;4987727;28;20081;-92
2023/08/07 00:10:09;;;;;;;16.67;2.80;;;;;;;11.56;100.00;101244.72;4971377;28;20085;-92
2023/08/07 00:12:34;;;;;;;25.45;3.08;;;;;;;11.64;100.00;101267.63;4973877;28;20062;-92
2023/08/07 00:15:00;;;;;;;13.33;2.60;;;;;;;11.52;100.00;101249.81;4972694;28;20077;-91
2023/08/07 00:17:26;;;;;;;21.58;2.90;;;;;;;11.64;100.00;101263.06;4970617;28;20465;-92
2023/08/07 00:19:51;;;;;;;16.47;2.90;;;;;;;11.60;100.00;101255.75;4973424;28;20678;-91
2023/08/07 00:22:16;;;;;;;18.50;3.00;;;;;;;11.69;100.00;101278.41;4974068;28;20026;-91
2023/08/07 00:24:42;;;;;;;12.83;2.50;;;;;;;11.47;100.00;101227.50;4990559;28;20695;-91
2023/08/07 00:27:09;;;;;;;14.67;2.67;;;;;;;11.50;100.00;101237.72;4974473;28;20781;-92
2023/08/07 00:29:35;;;;;;;21.00;2.73;;;;;;;11.48;100.00;101240.63;4977870;28;20035;-92
2023/08/07 00:32:00;;;;;;;12.33;2.17;;;;;;;11.43;100.00;101237.09;4989437;28;20298;-93
2023/08/07 00:34:25;;;;;;;11.40;2.23;;;;;;;11.39;100.00;101244.03;4972927;28;20058;-92
2023/08/07 00:36:51;;;;;;;7.67;1.40;;;;;;;11.31;100.00;101235.38;4972558;28;20039;-92
2023/08/07 00:39:16;;;;;;;13.07;2.20;;;;;;;11.36;100.00;101246.16;4967136;28;20031;-93
2023/08/07 00:41:41;;;;;;;10.23;2.50;;;;;;;11.37;100.00;101244.28;4972157;28;20034;-92
2023/08/07 00:44:07;;;;;;;16.87;2.93;;;;;;;11.40;100.00;101249.16;4971672;28;20062;-92
2023/08/07 00:46:32;;;;;;;11.87;2.13;;;;;;;11.40;100.00;101262.56;4972713;28;20081;-92
2023/08/07 00:48:58;;;;;;;15.27;2.30;;;;;;;11.42;100.00;101256.94;4971952;28;20030;-93
2023/08/07 00:51:23;;;;;;;13.25;2.30;;;;;;;11.41;100.00;101249.97;4962860;28;20089;-92
2023/08/07 00:53:49;;;;;;;17.87;2.53;;;;;;;11.34;100.00;101256.31;4953600;29;20042;-93
2023/08/07 00:56:15;;;;;;;16.75;2.58;;;;;;;11.23;100.00;101243.88;4961953;28;20046;-93
2023/08/07 00:58:40;;;;;;;12.15;2.20;;;;;;;11.36;100.00;101270.31;4971997;28;20046;-93
2023/08/07 01:01:07;;;;;;;13.97;2.33;;;;;;;11.20;100.00;101241.69;4973421;28;20230;-93
2023/08/07 01:03:32;;;;;;;10.73;2.10;;;;;;;11.19;100.00;101232.03;4972556;28;20041;-92
2023/08/07 01:05:58;;;;;;;14.33;2.27;;;;;;;11.13;100.00;101231.16;4971491;28;20042;-93
2023/08/07 01:08:24;;;;;;;16.83;2.28;;;;;;;11.36;100.00;101262.25;4976285;28;20027;-93
2023/08/07 01:11:02;;;;;;;16.23;2.63;;;;;;;11.34;100.00;101264.38;4972723;28;20046;-93
2023/08/07 01:13:37;;;;;;;12.68;2.50;;;;;;;11.25;100.00;101248.97;4970630;28;20030;-93
2023/08/07 01:16:10;;;;;;;21.17;2.67;;;;;;;11.23;100.00;101251.91;4972358;28;20487;-93
2023/08/07 01:18:38;;;;;;;14.73;2.28;;;;;;;11.29;100.00;101266.19;4987925;28;20027;-94
2023/08/07 01:21:03;;;;;;;18.63;2.55;;;;;;;11.25;100.00;101254.34;4971718;28;20019;-93
2023/08/07 01:23:29;;;;;;;15.37;2.40;;;;;;;11.24;100.00;101250.88;4971874;28;20541;-93
2023/08/07 01:25:54;;;;;;;14.37;2.60;;;;;;;11.18;100.00;101241.94;4972443;28;20031;-92
2023/08/07 01:28:38;;;;;;;15.88;2.40;;;;;;;11.17;100.00;101236.81;4972982;28;20475;-93
2023/08/07 01:31:10;;;;;;;18.33;2.80;;;;;;;11.25;100.00;101265.06;4973265;28;20501;-93
2023/08/07 01:33:47;;;;;;;25.63;2.43;;;;;;;11.29;100.00;101282.28;4968295;28;20298;-94
2023/08/07 01:36:15;;;;;;;12.50;2.33;;;;;;;11.31;100.00;101283.69;4964817;28;20027;-93
2023/08/07 01:38:42;;;;;;;15.90;2.67;;;;;;;11.20;100.00;101250.56;4954013;28;20035;-92
2023/08/07 01:41:08;;;;;;;16.58;2.25;;;;;;;11.19;100.00;101246.25;4967669;28;20019;-93
2023/08/07 01:43:34;;;;;;;16.50;2.80;;;;;;;11.23;100.00;101262.66;4974591;28;20089;-92
2023/08/07 01:45:59;;;;;;;18.37;2.63;;;;;;;11.31;100.00;101272.94;4986037;28;20034;-93
2023/08/07 01:48:25;;;;;;;11.68;2.63;;;;;;;11.23;100.00;101254.59;4954599;28;20058;-94
2023/08/07 01:50:50;;;;;;;14.73;2.50;;;;;;;11.23;100.00;101262.66;4964366;28;20011;-92
2023/08/07 01:53:16;;;;;;;25.57;3.00;;;;;;;11.32;100.00;101273.75;4985789;28;20018;-93
2023/08/07 01:55:41;;;;;;;14.57;2.50;;;;;;;11.19;100.00;101264.22;4973040;28;20286;-95
2023/08/07 01:58:06;;;;;;;10.70;2.33;;;;;;;11.12;100.00;101242.94;4972073;28;20410;-93
2023/08/07 02:00:32;;;;;;;14.97;2.40;;;;;;;11.25;100.00;101273.13;4973121;28;20134;-93
2023/08/07 02:02:57;;;;;;;8.77;2.20;;;;;;;11.31;100.00;101293.59;4972526;28;20027;-93
2023/08/07 02:05:23;;;;;;;12.07;2.53;;;;;;;11.20;100.00;101301.53;4969512;28;20022;-93
2023/08/07 02:07:51;;;;;;;14.00;2.90;;;;;;;11.23;100.00;101302.88;4967041;28;20027;-93
2023/08/07 02:10:16;;;;;;;11.63;2.47;;;;;;;11.23;100.00;101302.88;4965376;28;20043;-92
2023/08/07 02:12:42;;;;;;;20.60;3.00;;;;;;;11.15;100.00;101306.00;4972638;28;20109;-94
2023/08/07 02:15:07;;;;;;;16.97;2.70;;;;;;;11.10;100.00;101296.03;4972443;28;20122;-93
2023/08/07 02:17:33;;;;;;;17.65;2.50;;;;;;;11.21;100.00;101305.00;4971744;28;20035;-93
2023/08/07 02:19:58;;;;;;;14.80;2.60;;;;;;;11.14;100.00;101304.38;4972871;28;20023;-93
2023/08/07 02:22:24;;;;;;;13.00;2.58;;;;;;;11.05;100.00;101299.47;4972863;28;20104;-94
2023/08/07 02:24:51;;;;;;;17.47;2.60;;;;;;;11.10;100.00;101322.03;4972899;28;20031;-94
2023/08/07 02:27:16;;;;;;;11.82;2.83;;;;;;;10.96;100.00;101284.06;4969460;28;20034;-94
2023/08/07 02:29:41;;;;;;;19.77;3.37;;;;;;;11.06;100.00;101297.56;4973282;28;20042;-94
2023/08/07 02:32:07;;;;;;;14.93;2.97;;;;;;;11.12;100.00;101309.19;4973906;28;20105;-93
2023/08/07 02:34:33;;;;;;;20.30;3.43;;;;;;;11.03;100.00;101298.09;4982778;28;20031;-93
2023/08/07 02:36:58;;;;;;;17.63;3.45;;;;;;;11.10;100.00;101309.44;4973969;28;20038;-92
2023/08/07 02:39:24;;;;;;;14.40;3.57;;;;;;;10.95;100.00;101264.50;4982777;28;20562;-93
2023/08/07 02:41:50;;;;;;;17.20;3.28;;;;;;;11.10;100.00;101289.88;4984655;28;20725;-93
2023/08/07 02:44:18;;;;;;;12.73;3.00;;;;;;;10.90;100.00;101257.16;4983484;28;20029;-94
2023/08/07 02:46:43;;;;;;;20.85;3.15;;;;;;;11.19;100.00;101297.22;4977963;28;20058;-94
2023/08/07 02:49:29;;;;;;;23.35;3.22;;;;;;;11.20;100.00;101296.16;4975338;28;20054;-95
2023/08/07 02:51:54;;;;;;;16.50;3.20;;;;;;;10.87;100.00;101238.09;4978971;28;20554;-95
2023/08/07 02:54:19;;;;;;;15.40;3.30;;;;;;;11.10;100.00;101279.13;4976331;28;20317;-95
2023/08/07 02:56:45;;;;;;;17.43;3.03;;;;;;;11.04;100.00;101272.91;4983853;28;20062;-96
2023/08/07 02:59:10;;;;;;;13.07;2.67;;;;;;;11.14;100.00;101294.47;4983626;28;20038;-95
2023/08/07 03:01:37;;;;;;;20.93;3.10;;;;;;;10.98;100.00;101272.00;4986310;28;20063;-96
2023/08/07 03:04:03;;;;;;;17.05;3.03;;;;;;;11.12;100.00;101303.84;4977777;28;20035;-96
2023/08/07 03:06:28;;;;;;;22.95;3.30;;;;;;;11.10;100.00;101308.63;5017060;28;20043;-96
2023/08/07 03:08:53;;;;;;;18.77;3.60;;;;;;;11.14;100.00;101315.09;4986291;28;20034;-95
2023/08/07 03:11:19;;;;;;;19.43;3.50;;;;;;;11.14;100.00;101304.38;4982199;29;20015;-95
2023/08/07 03:13:45;;;;;;;15.55;3.50;;;;;;;11.19;100.00;101304.44;4982139;28;20035;-94
2023/08/07 03:16:10;;;;;;;22.13;3.23;;;;;;;11.31;100.00;101315.88;4994464;28;20046;-94
2023/08/07 03:18:36;;;;;;;13.85;3.10;;;;;;;11.08;100.00;101265.97;4994579;28;20023;-95
2023/08/07 03:21:01;;;;;;;12.40;3.27;;;;;;;11.01;100.00;101257.31;4978374;28;20023;-96
2023/08/07 03:23:28;;;;;;;18.07;3.43;;;;;;;11.18;100.00;101273.31;4984765;28;20390;-95
2023/08/07 03:26:10;;;;;;;17.45;2.95;;;;;;;11.01;100.00;101251.94;4975960;28;20045;-96
2023/08/07 03:28:36;;;;;;;15.88;3.38;;;;;;;11.19;100.00;101282.97;4971804;28;20057;-95
2023/08/07 03:31:05;;;;;;;14.30;2.88;;;;;;;11.32;100.00;101300.56;4989835;28;20467;-96
2023/08/07 03:33:30;;;;;;;14.90;3.10;;;;;;;11.30;100.00;101290.09;4974149;28;20023;-93
2023/08/07 03:35:55;;;;;;;21.20;4.00;;;;;;;11.18;100.00;101268.78;4974341;28;20033;-95
2023/08/07 03:38:21;;;;;;;12.80;2.90;;;;;;;11.19;100.00;101280.31;4975691;28;20102;-94
2023/08/07 03:40:46;;;;;;;17.33;3.35;;;;;;;11.23;100.00;101286.78;4973672;28;20114;-94
2023/08/07 03:43:11;;;;;;;18.33;3.03;;;;;;;11.20;100.00;101274.72;4974649;28;20035;-93
2023/08/07 03:45:38;;;;;;;13.37;3.07;;;;;;;11.26;100.00;101291.66;4973571;28;20455;-94
2023/08/07 03:48:03;;;;;;;16.52;3.15;;;;;;;11.15;100.00;101279.19;4974520;28;20026;-94
2023/08/07 03:50:30;;;;;;;18.00;3.60;;;;;;;11.09;100.00;101264.91;4973832;28;20122;-94
2023/08/07 03:52:56;;;;;;;13.55;3.20;;;;;;;11.16;100.00;101272.75;4974970;28;20494;-93
2023/08/07 03:55:21;;;;;;;12.40;3.27;;;;;;;11.24;100.00;101288.41;4975202;28;20029;-93
2023/08/07 03:57:46;;;;;;;12.38;3.22;;;;;;;11.23;100.00;101277.94;4972416;28;20053;-93
2023/08/07 04:00:13;;;;;;;15.13;4.20;;;;;;;11.31;100.00;101296.28;4974664;28;20039;-94
2023/08/07 04:02:38;;;;;;;14.37;3.63;;;;;;;11.23;100.00;101276.06;4974151;28;20019;-93
2023/08/07 04:05:04;;;;;;;16.23;3.60;;;;;;;11.27;100.00;101287.91;4973128;28;20851;-92
2023/08/07 04:07:31;;;;;;;11.53;3.87;;;;;;;11.31;100.00;101299.78;4976547;28;20034;-96
2023/08/07 04:10:02;;;;;;;17.38;3.40;;;;;;;11.32;100.00;101301.38;4999092;28;20043;-96
2023/08/07 04:12:32;;;;;;;17.48;4.15;;;;;;;11.27;100.00;101282.56;4973909;28;20036;-96
2023/08/07 04:15:02;;;;;;;11.88;3.58;;;;;;;11.23;100.00;101292.16;4981813;28;20198;-96
2023/08/07 04:17:28;;;;;;;12.15;2.95;;;;;;;11.23;100.00;101289.47;4990819;28;20027;-96
2023/08/07 04:19:55;;;;;;;17.35;3.63;;;;;;;11.21;100.00;101291.59;4991368;28;20102;-96
2023/08/07 04:22:31;;;;;;;19.48;2.72;;;;;;;11.19;100.00;101299.91;4963372;29;20054;-96
2023/08/07 04:25:00;;;;;;;17.47;3.10;;;;;;;11.08;100.00;101275.88;4976180;28;20023;-96
2023/08/07 04:27:30;;;;;;;14.33;3.00;;;;;;;11.19;100.00;101302.59;4981015;28;20279;-96
2023/08/07 04:29:58;;;;;;;19.08;3.00;;;;;;;11.15;100.00;101295.25;4979645;28;20075;-96
2023/08/07 04:32:28;;;;;;;17.10;3.10;;;;;;;11.25;100.00;101298.09;4993639;28;20041;-96
2023/08/07 04:34:57;;;;;;;16.23;3.80;;;;;;;11.14;100.00;101286.44;4997412;28;20228;-96
2023/08/07 04:37:22;;;;;;;14.43;2.95;;;;;;;11.14;100.00;101299.84;5000367;28;20039;-96
2023/08/07 04:43:01;;;;;;;22.30;2.90;;;;;;;11.23;100.00;101315.50;4977004;29;20091;-96
2023/08/07 04:45:55;;;;;;;10.33;2.67;;;;;;;11.23;100.00;101318.97;4974854;28;20266;-96
2023/08/07 04:48:38;;;;;;;16.13;3.08;;;;;;;11.28;100.00;101321.75;4975731;29;20027;-96
2023/08/07 04:51:09;;;;;;;19.42;3.30;;;;;;;11.34;100.00;101309.19;4973920;29;20031;-96
2023/08/07 04:53:39;;;;;;;12.55;3.17;;;;;;;11.36;100.00;101315.91;4983233;28;20030;-96
2023/08/07 04:56:31;;;;;;;16.67;3.20;;;;;;;11.38;100.00;101312.16;4976653;28;20112;-96
2023/08/07 05:02:49;;;;;;;17.63;3.08;;;;;;;11.35;100.00;101308.13;4992498;28;20021;-96
2023/08/07 05:05:42;;;;;;;9.10;2.42;;;;;;;11.41;100.00;101325.88;4992143;28;20027;-96
2023/08/07 05:08:09;;;;;;;10.00;2.20;;;;;;;11.38;100.00;101314.84;5121184;23;20061;-96
2023/08/07 05:13:09;;;;;;;10.83;2.73;;;;;;;11.08;100.00;101281.25;5094402;23;20306;-96
2023/08/07 05:15:40;;;;;;;10.00;2.20;;;;;;;11.12;100.00;101290.44;5149632;23;20041;-96
2023/08/07 05:18:06;;;;;;;7.93;2.10;;;;;;;11.31;100.00;101307.81;4992041;28;20383;-89
2023/08/07 05:20:32;;;;;;;9.17;2.47;;;;;;;11.33;100.00;101319.09;4990117;28;20372;-89
2023/08/07 05:22:57;;;;;;;11.38;2.53;;;;;;;11.40;100.00;101324.28;4991681;28;20054;-88
2023/08/07 05:25:22;;;;;;;9.60;2.60;;;;;;;11.44;100.00;101340.69;4979848;28;20035;-87
2023/08/07 05:27:48;;;;;;;10.20;2.10;;;;;;;11.37;100.00;101335.53;4970991;28;20030;-86
2023/08/07 05:30:14;;;;;;;11.80;1.83;;;;;;;11.40;100.00;101332.34;4972371;28;20442;-89
2023/08/07 05:32:41;;;;;;;12.52;2.10;;;;;;;11.40;100.00;101326.16;4973769;28;20030;-88
2023/08/07 05:35:08;;;;;;;9.43;2.50;;;;;;;11.32;100.00;101330.09;4972052;28;20039;-88
2023/08/07 05:37:34;;;;;;;6.20;1.85;;;;;;;11.41;100.00;101351.91;4972194;28;20074;-88
2023/08/07 05:39:59;;;;;;;9.32;1.80;;;;;;;11.40;100.00;101350.28;4972283;28;20405;-85
2023/08/07 05:42:25;;;;;;;11.43;2.57;;;;;;;11.44;100.00;101356.78;4971652;28;20038;-85
2023/08/07 05:44:50;;;;;;;14.53;2.10;;;;;;;11.40;100.00;101361.03;4969344;28;20038;-86
2023/08/07 05:47:15;;;;;;;10.45;1.85;;;;;;;11.39;100.00;101362.09;4967236;28;20070;-86
2023/08/07 05:49:41;;;;;;;12.70;2.50;;;;;;;11.45;100.00;101380.69;4958491;28;20503;-89
2023/08/07 05:52:07;;;;;;;10.50;2.23;;;;;;;11.44;100.00;101375.56;4954755;28;20490;-89
2023/08/07 05:54:32;;;;;;;10.45;2.55;;;;;;;11.47;100.00;101378.56;4967684;28;20038;-87
2023/08/07 05:56:57;;;;;;;11.20;2.60;;;;;;;11.46;100.00;101379.63;4953498;29;20480;-87
2023/08/07 05:59:23;;;;;;;8.70;2.63;;;;;;;11.54;100.00;101381.06;4960969;28;20121;-89
2023/08/07 06:01:48;;;;;;;12.40;2.30;;;;;;;11.55;100.00;101377.31;4967852;28;20029;-88
2023/08/07 06:04:13;;;;;;;10.13;2.37;;;;;;;11.60;100.00;101379.22;4967163;28;20038;-88
2023/08/07 06:06:39;;;;;;;18.73;3.15;;;;;;;11.64;100.00;101381.19;4965147;28;20133;-87
2023/08/07 06:09:06;;;;;;;9.73;2.53;;;;;;;11.65;100.00;101371.25;4961368;28;21564;-89
2023/08/07 06:11:32;;;;;;;16.42;2.85;;;;;;;11.73;100.00;101383.41;4941846;29;20042;-89
2023/08/07 06:13:57;;;;;;;14.75;2.95;;;;;;;11.64;100.00;101353.53;4960062;28;20402;-88
2023/08/07 06:16:22;;;;;;;10.50;2.80;;;;;;;11.85;100.00;101384.09;4962647;28;20034;-89
2023/08/07 06:18:48;;;;;;;13.70;2.93;;;;;;;11.92;100.00;101381.22;4971980;28;20023;-89
2023/08/07 06:21:13;;;;;;;15.53;2.77;;;;;;;11.97;100.00;101391.97;4968446;28;20404;-85
2023/08/07 06:23:38;;;;;;;11.40;2.37;;;;;;;11.87;100.00;101383.84;4969071;28;20030;-86
2023/08/07 06:26:04;;;;;;;9.90;2.50;;;;;;;11.82;100.00;101393.44;4961147;28;20031;-87
2023/08/07 06:28:30;;;;;;;14.57;2.40;;;;;;;11.79;100.00;101391.25;4971292;28;20034;-88
2023/08/07 06:31:06;;;;;;;16.08;2.92;;;;;;;11.84;100.00;101406.63;4968748;28;20106;-88
2023/08/07 06:33:33;;;;;;;13.73;2.47;;;;;;;11.82;100.00;101396.13;4970528;28;20031;-88
2023/08/07 06:35:58;;;;;;;13.30;2.15;;;;;;;11.90;100.00;101405.63;4971044;28;20026;-88
2023/08/07 06:38:23;;;;;;;16.37;2.30;;;;;;;11.99;100.00;101402.53;4972191;28;20138;-88
2023/08/07 06:40:49;;;;;;;15.10;2.93;;;;;;;12.13;100.00;101411.78;4971340;28;20030;-86
2023/08/07 06:43:14;;;;;;;12.97;2.43;;;;;;;12.29;100.00;101411.94;4971380;28;20042;-89
2023/08/07 06:45:39;;;;;;;8.90;2.00;;;;;;;12.37;100.00;101403.41;4954831;28;20034;-91
2023/08/07 06:48:05;;;;;;;14.30;2.60;;;;;;;12.65;100.00;101422.97;4971779;28;20037;-91
2023/08/07 06:50:30;;;;;;;14.25;2.30;;;;;;;12.70;100.00;101417.66;4944616;28;20037;-91
2023/08/07 06:52:56;;;;;;;13.20;2.13;;;;;;;12.87;100.00;101418.31;4973383;28;20367;-93
2023/08/07 06:55:21;;;;;;;18.97;2.30;;;;;;;12.98;100.00;101381.53;4958186;28;20046;-93
2023/08/07 06:57:46;;;;;;;11.88;2.42;;;;;;;13.36;100.00;101423.69;4954674;28;20061;-93
2023/08/07 07:00:12;;;;;;;11.10;2.60;;;;;;;13.44;100.00;101424.03;4956991;28;20027;-92
2023/08/07 07:02:40;;;;;;;8.45;1.73;;;;;;;13.59;100.00;101442.16;4978106;28;20022;-93
2023/08/07 07:05:42;;;;;;;11.77;2.40;;;;;;;13.25;100.00;101414.75;5472770;23;20561;-94
2023/08/07 07:08:08;;;;;;;9.67;1.97;;;;;;;13.31;100.00;101429.88;4995268;28;20305;-92
2023/08/07 07:10:33;;;;;;;15.25;2.05;;;;;;;13.41;100.00;101440.72;5002621;28;20036;-91
2023/08/07 07:12:59;;;;;;;10.80;2.20;;;;;;;13.38;100.00;101446.59;4999920;28;20039;-93
2023/08/07 07:15:24;;;;;;;10.27;1.60;;;;;;;13.50;100.00;101445.59;5004524;28;20018;-92
2023/08/07 07:17:49;;;;;;;9.13;1.80;;;;;;;13.59;100.00;101441.31;5019452;28;20038;-92
2023/08/07 07:20:15;;;;;;;12.10;1.90;;;;;;;13.68;100.00;101457.78;5015107;28;20064;-89
2023/08/07 07:22:40;;;;;;;8.13;1.93;;;;;;;13.53;100.00;101448.59;5013391;28;20022;-90
2023/08/07 07:25:06;;;;;;;11.70;1.70;;;;;;;13.78;100.00;101465.94;5011783;28;20030;-90
2023/08/07 07:27:31;;;;;;;8.70;1.63;;;;;;;13.86;100.00;101486.94;5011663;28;20033;-91
2023/08/07 07:29:57;;;;;;;8.77;1.80;;;;;;;13.68;100.00;101482.84;5014357;28;20117;-92
2023/08/07 07:32:22;;;;;;;12.00;1.77;;;;;;;13.45;100.00;101484.88;4994155;28;20029;-94
2023/08/07 07:34:47;;;;;;;7.57;1.70;;;;;;;13.17;100.00;101492.22;4995487;28;20022;-91
2023/08/07 07:37:14;;;;;;;10.23;1.80;;;;;;;12.96;100.00;101485.88;5012846;28;20512;-92
2023/08/07 07:39:39;;;;;;;14.30;2.50;;;;;;;12.87;100.00;101474.00;5010258;28;20377;-91
2023/08/07 07:42:05;;;;;;;13.93;2.42;;;;;;;12.92;100.00;101478.59;5001212;28;20026;-91
2023/08/07 07:44:31;;;;;;;12.47;2.53;;;;;;;13.00;100.00;101487.00;5002326;28;20108;-93
2023/08/07 07:46:56;;;;;;;13.10;2.70;;;;;;;13.13;100.00;101487.63;4994987;28;20122;-91
2023/08/07 07:49:21;;;;;;;17.17;2.40;;;;;;;13.09;100.00;101508.84;5007624;28;20109;-91
2023/08/07 07:51:48;;;;;;;10.23;2.10;;;;;;;12.79;100.00;101486.00;5016399;28;20084;-91
2023/08/07 07:54:13;;;;;;;11.75;2.40;;;;;;;12.91;100.00;101487.72;5014924;28;20038;-93
2023/08/07 07:56:39;;;;;;;9.60;1.90;;;;;;;12.77;100.00;101458.59;4996949;28;20029;-93
2023/08/07 07:59:04;;;;;;;12.83;2.03;;;;;;;13.03;100.00;101499.13;4978830;28;20027;-94
2023/08/07 08:01:29;;;;;;;17.10;2.60;;;;;;;13.07;100.00;101502.91;5013382;28;20297;-93
2023/08/07 08:03:55;;;;;;;11.87;2.23;;;;;;;13.14;100.00;101503.53;5012546;28;20072;-92
2023/08/07 08:06:20;;;;;;;12.23;2.70;;;;;;;13.27;100.00;101499.53;5019084;28;20065;-93
2023/08/07 08:08:45;;;;;;;11.63;2.17;;;;;;;13.51;100.00;101503.78;5011295;28;20013;-94
2023/08/07 08:11:11;;;;;;;7.57;1.95;;;;;;;13.57;100.00;101490.06;5010452;28;20034;-91
2023/08/07 08:13:39;;;;;;;7.60;2.00;;;;;;;13.68;100.00;101488.25;5027642;28;20029;-91
2023/08/07 08:16:05;;;;;;;7.60;2.40;;;;;;;13.78;100.00;101484.78;5026581;28;20041;-91
2023/08/07 08:18:30;;;;;;;8.88;2.13;;;;;;;13.96;100.00;101499.66;5010279;28;20026;-92
2023/08/07 08:20:56;;;;;;;7.47;1.80;;;;;;;14.21;100.00;101528.56;5022995;28;20030;-91
2023/08/07 08:23:22;;;;;;;9.35;1.95;;;;;;;14.27;100.00;101532.06;5025944;28;20398;-91
2023/08/07 08:25:48;;;;;;;12.67;2.60;;;;;;;14.30;100.00;101526.16;4995137;28;20034;-92
2023/08/07 08:28:14;;;;;;;9.02;2.50;;;;;;;14.32;100.00;101513.22;5021502;28;20038;-92
2023/08/07 08:30:39;;;;;;;9.17;2.30;;;;;;;14.28;100.00;101495.97;5026928;28;20045;-92
2023/08/07 08:33:05;;;;;;;9.80;2.73;;;;;;;14.36;100.00;101502.72;5013286;28;20125;-91
2023/08/07 08:35:31;;;;;;;12.43;2.45;;;;;;;14.42;100.00;101484.69;5010676;28;20026;-91
2023/08/07 08:37:56;;;;;;;10.80;2.25;;;;;;;14.49;100.00;101487.91;5004381;28;20081;-94
2023/08/07 08:40:23;;;;;;;10.73;2.33;;;;;;;14.97;100.00;101520.06;4996935;28;20121;-92
2023/08/07 08:42:49;;;;;;;8.05;2.25;;;;;;;15.04;100.00;101501.72;4999905;28;20022;-91
2023/08/07 08:45:15;;;;;;;9.55;2.08;;;;;;;14.94;100.00;101477.41;4996614;28;20565;-91
2023/08/07 08:47:44;;;;;;;7.07;2.03;;;;;;;15.47;100.00;101527.53;4994994;28;20113;-91
2023/08/07 08:50:14;;;;;;;8.90;2.10;;;;;;;15.86;100.00;101516.94;4995695;28;20022;-95
2023/08/07 08:52:45;;;;;;;10.10;1.38;;;;;;;16.32;100.00;101529.41;5023873;28;20024;-93
2023/08/07 08:55:12;;;;;;;8.90;2.00;;;;;;;16.58;100.00;101536.56;5037734;28;20040;-94
2023/08/07 08:57:40;;;;;;;8.43;2.20;;;;;;;16.43;100.00;101530.13;5020795;28;20025;-92
2023/08/07 09:00:31;;;;;;;9.65;1.60;;;;;;;16.10;100.00;101510.84;5020444;28;20045;-91
2023/08/07 09:02:57;;;;;;;5.35;1.45;;;;;;;15.79;100.00;101505.56;5016838;28;20042;-90
2023/08/07 09:05:22;;;;;;;5.20;1.40;;;;;;;15.91;100.00;101540.41;5016243;28;20072;-90
2023/08/07 09:07:49;;;;;;;8.67;1.70;;;;;;;15.88;100.00;101527.44;5037657;28;20284;-93
2023/08/07 09:10:16;;;;;;;11.63;1.98;;;;;;;16.42;100.00;101558.28;5016736;28;20153;-91
2023/08/07 09:12:49;;;;;;;7.78;1.95;;;;;;;16.74;100.00;101539.94;5014379;28;20026;-92
2023/08/07 09:15:16;;;;;;;6.67;1.83;;;;;;;16.90;100.00;101537.94;4996629;28;20029;-93
2023/08/07 09:17:43;;;;;;;7.07;1.57;;;;;;;16.81;100.00;101541.22;5013858;28;20300;-93
2023/08/07 09:20:13;;;;;;;4.57;1.63;;;;;;;16.56;98.77;101536.03;5013804;28;20060;-92
2023/08/07 09:22:42;;;;;;;6.55;1.83;;;;;;;16.71;100.00;101549.44;5023225;28;20024;-93
2023/08/07 09:25:09;;;;;;;3.72;1.50;;;;;;;16.71;96.48;101557.56;5017027;28;20034;-92
2023/08/07 09:27:36;;;;;;;7.88;1.77;;;;;;;16.81;100.00;101562.88;5035494;28;20018;-93
2023/08/07 09:30:02;;;;;;;7.45;1.77;;;;;;;16.85;98.69;101556.91;5018883;28;20013;-91
2023/08/07 09:32:28;;;;;;;12.25;1.90;;;;;;;16.70;91.03;101533.50;5035862;28;20056;-93
2023/08/07 09:34:53;;;;;;;5.10;1.50;;;;;;;16.76;86.59;101525.06;5017068;28;20102;-95
2023/08/07 09:37:19;;;;;;;5.20;1.80;;;;;;;17.13;93.83;101554.56;5017127;28;20056;-94
2023/08/07 09:39:46;;;;;;;8.33;1.70;;;;;;;17.49;87.38;101568.56;5035128;28;20033;-92
2023/08/07 09:42:16;;;;;;;3.85;1.65;;;;;;;17.90;92.20;101548.31;5015147;28;20037;-93
2023/08/07 09:44:42;;;;;;;6.80;1.70;;;;;;;18.41;86.14;101554.22;5024982;28;20034;-89
2023/08/07 09:47:18;;;;;;;6.43;1.73;;;;;;;18.88;87.70;101576.03;5024999;28;20025;-91
2023/08/07 09:49:45;;;;;;;4.30;1.42;;;;;;;18.84;81.44;101592.09;5019610;28;20026;-90
2023/08/07 09:52:14;;;;;;;7.35;1.80;;;;;;;18.51;77.42;101578.47;5021227;28;20034;-90
2023/08/07 09:54:40;;;;;;;6.18;1.35;;;;;;;18.17;79.65;101565.91;5015791;28;20060;-89
2023/08/07 09:57:06;;;;;;;4.60;1.40;;;;;;;18.31;75.83;101585.78;5007968;28;20026;-89
2023/08/07 09:59:33;;;;;;;4.35;1.20;;;;;;;18.33;81.12;101581.97;4995331;28;20022;-92
2023/08/07 10:02:04;;;;;;;5.85;1.70;;;;;;;18.45;79.57;101563.34;4998276;28;20058;-92
2023/08/07 10:04:31;;;;;;;6.50;1.65;;;;;;;18.60;76.63;101586.75;4999880;28;20485;-92
2023/08/07 10:06:57;;;;;;;11.43;1.40;;;;;;;18.86;70.65;101592.59;5013243;28;20042;-93
2023/08/07 10:09:23;;;;;;;8.00;1.60;;;;;;;19.14;69.18;101576.44;4994374;28;20033;-93
2023/08/07 10:11:51;;;;;;;5.40;1.47;;;;;;;19.40;72.41;101591.50;5012447;28;20053;-94
2023/08/07 10:14:18;;;;;;;9.70;1.47;;;;;;;19.22;71.32;101583.91;5006492;28;20304;-92
2023/08/07 10:16:45;;;;;;;5.63;1.58;;;;;;;19.00;70.57;101600.84;4984571;28;20036;-92
2023/08/07 10:19:13;;;;;;;6.60;1.40;;;;;;;18.50;71.12;101579.56;5004727;28;20030;-92
2023/08/07 10:21:40;;;;;;;6.20;1.70;;;;;;;18.36;69.30;101568.63;5003126;28;20042;-94
2023/08/07 10:24:07;;;;;;;3.80;1.50;;;;;;;18.52;74.50;101611.84;5007824;28;20030;-93
2023/08/07 10:26:35;;;;;;;6.35;1.58;;;;;;;18.57;68.83;101609.03;4994788;28;20026;-90
2023/08/07 10:29:07;;;;;;;3.83;1.48;;;;;;;18.64;73.55;101601.34;5002443;28;20030;-91
2023/08/07 10:31:34;;;;;;;4.40;1.73;;;;;;;18.66;67.91;101606.47;5005178;28;20541;-91
2023/08/07 10:34:00;;;;;;;5.57;1.57;;;;;;;18.69;69.16;101606.72;5005360;28;20061;-92
2023/08/07 10:36:33;;;;;;;3.42;1.30;;;;;;;18.81;71.85;101600.03;5012451;28;20060;-94
2023/08/07 10:39:11;;;;;;;4.00;1.40;;;;;;;19.16;69.21;101614.97;5012324;28;20025;-89
2023/08/07 10:41:42;;;;;;;4.35;1.27;;;;;;;19.30;62.50;101600.63;5014382;28;20022;-92
2023/08/07 10:44:21;;;;;;;4.10;1.33;;;;;;;19.48;66.37;101626.13;5022978;28;20452;-90
2023/08/07 10:46:53;;;;;;;6.70;1.63;;;;;;;19.48;66.15;101610.63;5031388;28;20017;-91
2023/08/07 10:49:32;;;;;;;6.70;2.00;;;;;;;19.56;65.00;101617.28;5023694;28;20053;-90
2023/08/07 10:51:58;;;;;;;2.97;1.53;;;;;;;19.73;65.97;101616.69;5026945;28;20045;-90
2023/08/07 10:54:24;;;;;;;6.80;2.10;;;;;;;19.88;57.60;101623.78;5032613;28;20307;-91
2023/08/07 10:56:54;;;;;;;4.82;1.50;;;;;;;19.65;62.70;101622.84;5032151;28;20022;-91
2023/08/07 10:59:20;;;;;;;4.80;1.67;;;;;;;19.28;62.05;101627.28;5036043;28;20018;-91
2023/08/07 11:05:30;;;;;;;5.00;1.80;;;;;;;19.78;63.89;101624.75;5026405;28;20052;-92
2023/08/07 11:07:57;;;;;;;5.63;1.40;;;;;;;19.88;58.06;101590.34;5012134;28;20388;-88
2023/08/07 11:10:24;;;;;;;3.97;1.50;;;;;;;20.54;61.42;101628.16;5028605;28;20060;-88
2023/08/07 11:12:49;;;;;;;3.95;1.67;;;;;;;20.33;55.17;101617.69;5034907;28;20013;-90
2023/08/07 11:15:15;;;;;;;4.35;2.03;;;;;;;20.06;58.64;101626.69;5033661;28;20018;-90
2023/08/07 11:17:41;;;;;;;5.87;2.00;;;;;;;19.62;62.36;101631.59;5030746;28;20049;-89
2023/08/07 11:20:07;;;;;;;4.85;1.45;;;;;;;19.60;63.04;101629.19;5036589;28;20105;-89
2023/08/07 11:22:32;;;;;;;2.53;1.53;;;;;;;19.42;61.35;101636.28;5016971;28;20026;-87
2023/08/07 11:24:58;;;;;;;5.00;1.60;;;;;;;19.19;56.24;101622.50;5015658;28;20284;-88
2023/08/07 11:27:23;;;;;;;6.50;1.40;;;;;;;18.90;53.78;101618.06;5014842;28;20033;-92